createdAt,value
2018-12-21T00:00:06.677Z,101555.84
2018-12-21T00:02:35.736Z,101554.47
2018-12-21T00:05:04.814Z,101554.59
2018-12-21T00:07:33.908Z,101555.33
2018-12-21T00:10:02.980Z,101550.19
2018-12-21T00:12:32.046Z,101554.72
2018-12-21T00:15:01.152Z,101551.17
2018-12-21T00:17:34.489Z,101547.30
2018-12-21T00:19:59.292Z,101548.86
2018-12-21T00:22:28.434Z,101542.98
2018-12-21T00:24:57.512Z,101550.91
2018-12-21T00:27:26.595Z,101542.66
2018-12-21T00:29:55.718Z,101550.55
2018-12-21T00:32:30.388Z,101545.13
2018-12-21T00:35:05.114Z,101543.23
2018-12-21T00:37:39.670Z,101544.56
2018-12-21T00:40:14.264Z,101549.36
2018-12-21T00:42:46.140Z,101551.18
2018-12-21T00:45:15.244Z,101546.36
2018-12-21T00:47:44.311Z,101543.84
2018-12-21T00:50:13.374Z,101544.98
2018-12-21T00:52:42.467Z,101544.59
2018-12-21T00:55:11.543Z,101543.89
2018-12-21T00:57:40.608Z,101550.27
2018-12-21T01:00:09.725Z,101554.22
2018-12-21T01:02:38.829Z,101552.33
2018-12-21T01:05:07.895Z,101551.45
2018-12-21T01:07:36.972Z,101557.08
2018-12-21T01:10:06.050Z,101553.01
2018-12-21T01:12:35.117Z,101550.48
2018-12-21T01:15:04.196Z,101549.89
2018-12-21T01:17:36.936Z,101550.81
2018-12-21T01:20:06.083Z,101546.85
2018-12-21T01:22:35.146Z,101549.11
2018-12-21T01:25:04.219Z,101551.41
2018-12-21T01:27:33.317Z,101544.22
2018-12-21T01:30:02.397Z,101540.42
2018-12-21T01:32:31.474Z,101535.37
2018-12-21T01:35:00.634Z,101533.26
2018-12-21T01:37:29.703Z,101533.70
2018-12-21T01:39:58.776Z,101528.05
2018-12-21T01:42:27.895Z,101533.38
2018-12-21T01:44:56.967Z,101522.76
2018-12-21T01:47:26.036Z,101522.84
2018-12-21T01:49:55.136Z,101521.13
2018-12-21T01:52:24.220Z,101519.16
2018-12-21T01:54:53.293Z,101512.27
2018-12-21T01:57:22.390Z,101511.48
2018-12-21T01:59:51.480Z,101514.16
2018-12-21T02:02:20.548Z,101510.31
2018-12-21T02:04:49.647Z,101511.37
2018-12-21T02:07:18.751Z,101509.52
2018-12-21T02:09:47.826Z,101502.61
2018-12-21T02:12:16.937Z,101498.73
2018-12-21T02:14:46.000Z,101492.72
2018-12-21T02:17:15.073Z,101488.95
2018-12-21T02:19:44.375Z,101491.98
2018-12-21T02:22:13.449Z,101488.08
2018-12-21T02:24:42.526Z,101489.95
2018-12-21T02:27:11.697Z,101489.48
2018-12-21T02:29:40.824Z,101484.47
2018-12-21T02:32:09.956Z,101487.23
2018-12-21T02:34:39.056Z,101484.90
2018-12-21T02:37:08.122Z,101489.70
2018-12-21T02:39:37.181Z,101486.79
2018-12-21T02:42:06.368Z,101488.34
2018-12-21T02:44:35.446Z,101483.64
2018-12-21T02:47:04.525Z,101482.25
2018-12-21T02:49:33.702Z,101479.30
2018-12-21T02:52:05.768Z,101475.44
2018-12-21T02:54:31.930Z,101470.13
2018-12-21T02:57:01.215Z,101470.77
2018-12-21T02:59:30.371Z,101469.52
2018-12-21T03:01:59.571Z,101473.38
2018-12-21T03:04:28.703Z,101479.20
2018-12-21T03:06:57.774Z,101473.08
2018-12-21T03:09:26.848Z,101472.77
2018-12-21T03:11:55.972Z,101473.70
2018-12-21T03:14:25.052Z,101472.94
2018-12-21T03:16:54.242Z,101473.59
2018-12-21T03:19:23.368Z,101466.45
2018-12-21T03:21:52.452Z,101463.08
2018-12-21T03:24:21.544Z,101462.97
2018-12-21T03:26:50.641Z,101455.08
2018-12-21T03:29:19.709Z,101454.32
2018-12-21T03:31:48.837Z,101454.19
2018-12-21T03:34:17.938Z,101451.15
2018-12-21T03:36:47.023Z,101445.58
2018-12-21T03:39:16.096Z,101439.91
2018-12-21T03:41:45.195Z,101440.09
2018-12-21T03:44:14.263Z,101439.82
2018-12-21T03:46:43.341Z,101435.50
2018-12-21T03:49:12.433Z,101447.98
2018-12-21T03:51:41.502Z,101438.29
2018-12-21T03:54:10.658Z,101438.03
2018-12-21T03:56:39.909Z,101436.68
2018-12-21T03:59:09.039Z,101432.73
2018-12-21T04:01:38.103Z,101425.03
2018-12-21T04:04:07.200Z,101426.86
2018-12-21T04:06:36.267Z,101437.56
2018-12-21T04:09:05.341Z,101432.41
2018-12-21T04:11:34.489Z,101431.73
2018-12-21T04:14:03.634Z,101433.11
2018-12-21T04:16:32.752Z,101436.55
2018-12-21T04:19:01.898Z,101440.11
2018-12-21T04:21:30.957Z,101430.77
2018-12-21T04:24:00.034Z,101434.41
2018-12-21T04:26:29.133Z,101432.89
2018-12-21T04:28:58.197Z,101436.55
2018-12-21T04:31:27.267Z,101432.02
2018-12-21T04:33:56.368Z,101431.07
2018-12-21T04:36:25.437Z,101429.98
2018-12-21T04:38:54.527Z,101427.00
2018-12-21T04:41:23.672Z,101424.97
2018-12-21T04:43:52.753Z,101425.05
2018-12-21T04:46:21.830Z,101419.95
2018-12-21T04:48:50.929Z,101423.56
2018-12-21T04:51:20.001Z,101417.95
2018-12-21T04:53:49.087Z,101420.14
2018-12-21T04:56:18.233Z,101413.69
2018-12-21T04:58:47.307Z,101417.02
2018-12-21T05:01:16.377Z,101414.14
2018-12-21T05:03:45.498Z,101419.89
2018-12-21T05:06:14.557Z,101418.77
2018-12-21T05:08:43.622Z,101416.71
2018-12-21T05:11:12.734Z,101412.13
2018-12-21T05:13:41.796Z,101407.80
2018-12-21T05:16:10.864Z,101410.09
2018-12-21T05:18:39.968Z,101405.73
2018-12-21T05:21:09.046Z,101407.50
2018-12-21T05:23:38.123Z,101407.95
2018-12-21T05:26:07.240Z,101406.87
2018-12-21T05:28:36.305Z,101407.25
2018-12-21T05:31:05.382Z,101407.11
2018-12-21T05:33:34.481Z,101400.52
2018-12-21T05:36:03.545Z,101398.61
2018-12-21T05:38:32.617Z,101399.19
2018-12-21T05:41:01.721Z,101401.16
2018-12-21T05:43:30.803Z,101406.02
2018-12-21T05:46:00.875Z,101399.81
2018-12-21T05:48:30.009Z,101394.92
2018-12-21T05:50:59.087Z,101396.41
2018-12-21T05:53:28.166Z,101395.42
2018-12-21T05:55:57.266Z,101389.09
2018-12-21T05:58:26.454Z,101392.87
2018-12-21T06:00:55.423Z,101392.53
2018-12-21T06:03:24.527Z,101386.67
2018-12-21T06:05:53.601Z,101391.14
2018-12-21T06:08:22.685Z,101383.83
2018-12-21T06:10:51.814Z,101386.16
2018-12-21T06:13:20.880Z,101391.55
2018-12-21T06:15:49.969Z,101387.98
2018-12-21T06:18:19.086Z,101379.00
2018-12-21T06:20:48.156Z,101380.95
2018-12-21T06:23:17.235Z,101379.02
2018-12-21T06:25:46.354Z,101376.02
2018-12-21T06:28:15.439Z,101375.98
2018-12-21T06:30:44.521Z,101378.31
2018-12-21T06:33:13.821Z,101377.56
2018-12-21T06:35:43.309Z,101381.11
2018-12-21T06:38:12.381Z,101371.34
2018-12-21T06:40:41.489Z,101369.72
2018-12-21T06:43:10.565Z,101377.05
2018-12-21T06:45:39.643Z,101376.84
2018-12-21T06:48:08.755Z,101376.61
2018-12-21T06:50:37.841Z,101369.09
2018-12-21T06:53:06.916Z,101367.36
2018-12-21T06:55:36.044Z,101363.95
2018-12-21T06:58:05.121Z,101370.89
2018-12-21T07:00:34.191Z,101368.16
2018-12-21T07:03:03.290Z,101357.62
2018-12-21T07:05:32.383Z,101360.94
2018-12-21T07:08:01.453Z,101363.68
2018-12-21T07:10:30.553Z,101364.96
2018-12-21T07:12:59.623Z,101361.30
2018-12-21T07:15:28.697Z,101365.73
2018-12-21T07:17:57.817Z,101362.58
2018-12-21T07:20:27.008Z,101364.33
2018-12-21T07:22:56.400Z,101368.60
2018-12-21T07:25:25.538Z,101361.55
2018-12-21T07:27:54.628Z,101362.25
2018-12-21T07:30:23.704Z,101360.95
2018-12-21T07:32:52.807Z,101363.07
2018-12-21T07:35:21.905Z,101361.83
2018-12-21T07:37:50.981Z,101353.77
2018-12-21T07:40:20.289Z,101345.30
2018-12-21T07:42:49.369Z,101343.72
2018-12-21T07:45:18.453Z,101344.91
2018-12-21T07:47:47.567Z,101350.35
2018-12-21T07:50:16.656Z,101347.10
2018-12-21T07:52:45.748Z,101344.47
2018-12-21T07:55:14.850Z,101342.02
2018-12-21T07:57:43.936Z,101341.44
2018-12-21T08:00:13.287Z,101343.84
2018-12-21T08:02:42.493Z,101341.50
2018-12-21T08:05:11.581Z,101342.44
2018-12-21T08:07:40.658Z,101338.36
2018-12-21T08:10:09.774Z,101341.82
2018-12-21T08:12:38.843Z,101341.47
2018-12-21T08:15:07.916Z,101336.99
2018-12-21T08:17:37.006Z,101331.42
2018-12-21T08:20:06.074Z,101336.00
2018-12-21T08:22:35.148Z,101330.97
2018-12-21T08:25:04.273Z,101333.65
2018-12-21T08:27:48.045Z,101321.19
2018-12-21T08:30:17.161Z,101320.02
2018-12-21T08:32:46.227Z,101323.58
2018-12-21T08:35:15.287Z,101329.70
2018-12-21T08:37:44.749Z,101330.44
2018-12-21T08:40:13.817Z,101328.70
2018-12-21T08:42:42.893Z,101327.45
2018-12-21T08:45:12.011Z,101323.73
2018-12-21T08:47:41.078Z,101325.70
2018-12-21T08:50:10.145Z,101316.99
2018-12-21T08:52:39.240Z,101315.81
2018-12-21T08:55:08.321Z,101309.56
2018-12-21T08:57:37.386Z,101310.84
2018-12-21T09:03:03.127Z,101302.73
2018-12-21T09:05:32.321Z,101312.63
2018-12-21T09:08:01.405Z,101313.30
2018-12-21T09:10:30.481Z,101309.95
2018-12-21T09:12:59.592Z,101307.08
2018-12-21T09:15:28.681Z,101308.17
2018-12-21T09:17:57.757Z,101303.00
2018-12-21T09:20:26.869Z,101298.02
2018-12-21T09:22:55.951Z,101296.70
2018-12-21T09:25:25.051Z,101298.28
2018-12-21T09:27:54.142Z,101291.32
2018-12-21T09:30:23.232Z,101284.14
2018-12-21T09:32:52.288Z,101286.97
2018-12-21T09:35:21.536Z,101276.26
2018-12-21T09:37:50.626Z,101272.94
2018-12-21T09:40:19.706Z,101276.14
2018-12-21T09:42:48.808Z,101269.28
2018-12-21T09:45:17.878Z,101266.36
2018-12-21T09:47:46.938Z,101274.73
2018-12-21T09:50:16.032Z,101265.85
2018-12-21T09:52:45.100Z,101268.04
2018-12-21T09:55:14.162Z,101262.64
2018-12-21T09:57:43.295Z,101255.48
2018-12-21T10:00:12.366Z,101257.48
2018-12-21T10:02:41.443Z,101253.58
2018-12-21T10:05:10.560Z,101247.86
2018-12-21T10:07:39.631Z,101239.05
2018-12-21T10:10:08.714Z,101240.74
2018-12-21T10:12:37.820Z,101236.11
2018-12-21T10:15:06.920Z,101236.61
2018-12-21T10:17:35.994Z,101227.28
2018-12-21T10:20:05.533Z,101216.99
2018-12-21T10:22:34.629Z,101213.23
2018-12-21T10:25:04.042Z,101212.58
2018-12-21T10:27:33.151Z,101208.12
2018-12-21T10:30:02.224Z,101208.22
2018-12-21T10:32:31.293Z,101204.55
2018-12-21T10:35:00.412Z,101198.33
2018-12-21T10:37:29.483Z,101198.63
2018-12-21T10:39:58.555Z,101198.27
2018-12-21T10:42:27.686Z,101188.88
2018-12-21T10:44:56.758Z,101184.50
2018-12-21T10:47:25.826Z,101190.98
2018-12-21T10:49:54.924Z,101186.73
2018-12-21T10:52:23.997Z,101181.28
2018-12-21T10:54:53.067Z,101171.44
2018-12-21T10:57:22.169Z,101171.09
2018-12-21T10:59:51.229Z,101156.31
2018-12-21T11:02:20.295Z,101157.73
2018-12-21T11:04:49.448Z,101150.74
2018-12-21T11:07:18.532Z,101146.45
2018-12-21T11:09:47.606Z,101147.52
2018-12-21T11:12:16.708Z,101154.57
2018-12-21T11:14:45.784Z,101149.41
2018-12-21T11:17:14.870Z,101143.13
2018-12-21T11:19:43.963Z,101135.56
2018-12-21T11:22:13.052Z,101140.86
2018-12-21T11:24:42.139Z,101134.93
2018-12-21T11:27:11.256Z,101135.77
2018-12-21T11:29:40.329Z,101139.44
2018-12-21T11:32:09.393Z,101135.66
2018-12-21T11:34:38.503Z,101132.80
2018-12-21T11:37:07.566Z,101133.55
2018-12-21T11:39:36.633Z,101137.64
2018-12-21T11:42:05.728Z,101129.13
2018-12-21T11:44:34.802Z,101134.91
2018-12-21T11:47:03.883Z,101121.06
2018-12-21T11:49:33.011Z,101116.34
2018-12-21T11:52:02.086Z,101128.59
2018-12-21T11:54:31.150Z,101114.77
2018-12-21T11:57:00.252Z,101116.56
2018-12-21T11:59:29.440Z,101113.98
2018-12-21T12:01:58.398Z,101116.20
2018-12-21T12:04:27.483Z,101115.84
2018-12-21T12:06:58.496Z,101113.07
2018-12-21T12:09:27.568Z,101108.63
2018-12-21T12:11:57.099Z,101100.21
2018-12-21T12:14:26.171Z,101100.31
2018-12-21T12:16:55.238Z,101122.11
2018-12-21T12:19:24.347Z,101112.11
2018-12-21T12:21:53.422Z,101111.61
2018-12-21T12:24:22.507Z,101108.47
2018-12-21T12:26:57.319Z,101101.50
2018-12-21T12:29:26.400Z,101099.89
2018-12-21T12:31:55.467Z,101097.88
2018-12-21T12:34:24.570Z,101101.16
2018-12-21T12:36:53.663Z,101092.45
2018-12-21T12:39:22.742Z,101093.33
2018-12-21T12:41:51.848Z,101083.70
2018-12-21T12:44:20.925Z,101077.89
2018-12-21T12:46:50.008Z,101075.12
2018-12-21T12:49:19.109Z,101070.55
2018-12-21T12:51:48.194Z,101070.48
2018-12-21T12:54:17.271Z,101063.08
2018-12-21T12:56:46.388Z,101063.64
2018-12-21T12:59:15.465Z,101056.14
2018-12-21T13:01:44.546Z,101062.66
2018-12-21T13:04:13.639Z,101067.76
2018-12-21T13:06:42.717Z,101064.82
2018-12-21T13:09:11.776Z,101060.64
2018-12-21T13:11:40.876Z,101050.75
2018-12-21T13:14:09.967Z,101044.25
2018-12-21T13:16:57.843Z,101043.52
2018-12-21T13:19:26.928Z,101046.89
2018-12-21T13:21:56.000Z,101041.88
2018-12-21T13:24:25.106Z,101037.80
2018-12-21T13:26:54.178Z,101035.44
2018-12-21T13:29:23.292Z,101040.70
2018-12-21T13:31:52.398Z,101027.59
2018-12-21T13:34:21.483Z,101026.35
2018-12-21T13:36:50.565Z,101025.43
2018-12-21T13:39:19.724Z,101025.59
2018-12-21T13:41:48.790Z,101022.05
2018-12-21T13:44:17.871Z,101027.45
2018-12-21T13:46:47.335Z,101018.25
2018-12-21T13:49:16.426Z,101012.91
2018-12-21T13:51:45.505Z,101009.17
2018-12-21T13:54:14.610Z,101004.02
2018-12-21T13:56:43.733Z,101004.19
2018-12-21T13:59:12.813Z,100999.37
2018-12-21T14:01:41.926Z,100995.20
2018-12-21T14:04:11.025Z,100996.95
2018-12-21T14:06:40.116Z,100993.58
2018-12-21T14:09:09.221Z,100985.45
2018-12-21T14:11:38.309Z,100980.91
2018-12-21T14:14:07.398Z,100974.05
2018-12-21T14:16:36.785Z,100970.00
2018-12-21T14:19:05.869Z,100964.69
2018-12-21T14:21:34.949Z,100964.58
2018-12-21T14:24:04.074Z,100972.69
2018-12-21T14:26:33.154Z,100965.53
2018-12-21T14:29:02.235Z,100960.19
2018-12-21T14:31:31.334Z,100959.92
2018-12-21T14:34:00.407Z,100964.53
2018-12-21T14:36:29.476Z,100963.66
2018-12-21T14:38:58.573Z,100958.28
2018-12-21T14:41:27.654Z,100949.56
2018-12-21T14:43:56.728Z,100940.73
2018-12-21T14:46:25.862Z,100940.94
2018-12-21T14:48:54.941Z,100939.92
2018-12-21T14:51:24.015Z,100941.53
2018-12-21T14:53:53.116Z,100936.53
2018-12-21T14:56:22.194Z,100938.98
2018-12-21T14:58:51.274Z,100936.80
2018-12-21T15:01:20.378Z,100934.52
2018-12-21T15:03:49.450Z,100926.47
2018-12-21T15:06:18.536Z,100920.11
2018-12-21T15:08:47.648Z,100914.62
2018-12-21T15:11:16.733Z,100915.88
2018-12-21T15:13:45.814Z,100915.67
2018-12-21T15:16:15.139Z,100911.49
2018-12-21T15:18:44.236Z,100905.67
2018-12-21T15:21:13.311Z,100899.22
2018-12-21T15:23:42.411Z,100893.82
2018-12-21T15:26:11.495Z,100889.75
2018-12-21T15:28:40.571Z,100885.89
2018-12-21T15:31:10.167Z,100884.53
2018-12-21T15:33:39.241Z,100876.36
2018-12-21T15:36:08.316Z,100871.48
2018-12-21T15:38:37.424Z,100874.80
2018-12-21T15:41:06.487Z,100868.83
2018-12-21T15:43:35.566Z,100873.17
2018-12-21T15:46:04.678Z,100867.91
2018-12-21T15:48:33.774Z,100863.94
2018-12-21T15:51:02.856Z,100864.22
2018-12-21T15:53:31.977Z,100851.67
2018-12-21T15:56:01.049Z,100857.48
2018-12-21T15:58:30.103Z,100842.64
2018-12-21T16:00:59.201Z,100843.91
2018-12-21T16:03:28.277Z,100846.78
2018-12-21T16:05:57.338Z,100838.37
2018-12-21T16:08:26.444Z,100832.16
2018-12-21T16:10:55.503Z,100829.94
2018-12-21T16:13:24.588Z,100831.61
2018-12-21T16:15:53.728Z,100825.80
2018-12-21T16:18:22.811Z,100821.31
2018-12-21T16:20:51.888Z,100807.73
2018-12-21T16:23:21.000Z,100805.49
2018-12-21T16:25:50.086Z,100799.80
2018-12-21T16:28:19.159Z,100800.39
2018-12-21T16:30:48.280Z,100791.48
2018-12-21T16:33:17.351Z,100787.77
2018-12-21T16:35:46.424Z,100782.17
2018-12-21T16:38:16.029Z,100780.77
2018-12-21T16:40:44.931Z,100774.68
2018-12-21T16:43:14.008Z,100782.50
2018-12-21T16:45:43.113Z,100781.92
2018-12-21T16:48:12.183Z,100783.92
2018-12-21T16:50:41.344Z,100779.08
2018-12-21T16:53:10.366Z,100779.28
2018-12-21T16:55:39.449Z,100774.55
2018-12-21T16:58:08.517Z,100769.71
2018-12-21T17:00:37.644Z,100764.23
2018-12-21T17:03:15.382Z,100764.34
2018-12-21T17:05:35.769Z,100754.59
2018-12-21T17:08:04.863Z,100749.80
2018-12-21T17:10:33.931Z,100739.58
2018-12-21T17:13:03.022Z,100732.83
2018-12-21T17:15:32.100Z,100729.24
2018-12-21T17:18:01.154Z,100722.86
2018-12-21T17:20:30.222Z,100718.81
2018-12-21T17:23:00.732Z,100725.35
2018-12-21T17:25:28.406Z,100724.03
2018-12-21T17:27:57.479Z,100717.08
2018-12-21T17:30:26.585Z,100717.02
2018-12-21T17:32:55.668Z,100712.12
2018-12-21T17:35:24.887Z,100714.38
2018-12-21T17:37:53.997Z,100712.31
2018-12-21T17:40:23.061Z,100707.77
2018-12-21T17:42:52.124Z,100701.99
2018-12-21T17:45:21.336Z,100706.37
2018-12-21T17:47:50.400Z,100702.42
2018-12-21T17:50:19.460Z,100687.03
2018-12-21T17:52:48.554Z,100683.34
2018-12-21T17:55:17.611Z,100677.81
2018-12-21T17:57:46.673Z,100676.64
2018-12-21T18:00:15.778Z,100677.55
2018-12-21T18:02:44.847Z,100674.13
2018-12-21T18:05:13.917Z,100666.36
2018-12-21T18:07:43.059Z,100665.62
2018-12-21T18:10:12.125Z,100659.56
2018-12-21T18:12:41.203Z,100660.44
2018-12-21T18:15:10.310Z,100658.81
2018-12-21T18:17:57.384Z,100656.77
2018-12-21T18:20:26.473Z,100646.47
2018-12-21T18:22:55.533Z,100644.06
2018-12-21T18:25:24.601Z,100637.56
2018-12-21T18:27:53.752Z,100637.47
2018-12-21T18:30:22.815Z,100626.81
2018-12-21T18:32:51.892Z,100626.41
2018-12-21T18:35:21.003Z,100622.34
2018-12-21T18:37:50.066Z,100613.13
2018-12-21T18:40:19.154Z,100609.18
2018-12-21T18:42:48.504Z,100605.89
2018-12-21T18:45:17.570Z,100602.55
2018-12-21T18:47:46.650Z,100600.00
2018-12-21T18:50:15.758Z,100594.52
2018-12-21T18:52:44.837Z,100593.26
2018-12-21T18:55:13.919Z,100592.72
2018-12-21T18:57:43.012Z,100586.43
2018-12-21T19:00:12.086Z,100587.42
2018-12-21T19:02:41.155Z,100581.40
2018-12-21T19:05:10.285Z,100580.52
2018-12-21T19:07:39.362Z,100582.25
2018-12-21T19:10:08.447Z,100580.78
2018-12-21T19:12:37.580Z,100574.87
2018-12-21T19:15:06.638Z,100572.59
2018-12-21T19:17:35.715Z,100564.83
2018-12-21T19:20:05.961Z,100560.14
2018-12-21T19:22:33.887Z,100546.98
2018-12-21T19:25:02.965Z,100539.31
2018-12-21T19:27:32.068Z,100534.30
2018-12-21T19:30:01.133Z,100527.30
2018-12-21T19:32:30.209Z,100515.21
2018-12-21T19:34:59.408Z,100504.58
2018-12-21T19:37:28.781Z,100502.59
2018-12-21T19:39:59.488Z,100501.20
2018-12-21T19:42:27.042Z,100496.22
2018-12-21T19:44:56.108Z,100487.28
2018-12-21T19:47:26.191Z,100484.37
2018-12-21T19:49:55.317Z,100482.52
2018-12-21T19:52:24.390Z,100475.96
2018-12-21T19:54:53.460Z,100472.29
2018-12-21T19:57:43.489Z,100467.56
2018-12-21T20:00:12.560Z,100463.84
2018-12-21T20:02:41.626Z,100456.25
2018-12-21T20:05:10.810Z,100450.28
2018-12-21T20:07:39.877Z,100447.77
2018-12-21T20:10:08.954Z,100438.88
2018-12-21T20:12:38.071Z,100430.97
2018-12-21T20:15:07.135Z,100426.47
2018-12-21T20:17:36.213Z,100423.70
2018-12-21T20:20:05.384Z,100418.72
2018-12-21T20:22:34.458Z,100418.73
2018-12-21T20:25:03.537Z,100418.22
2018-12-21T20:27:32.638Z,100415.59
2018-12-21T20:30:01.704Z,100416.08
2018-12-21T20:32:30.779Z,100412.63
2018-12-21T20:34:59.875Z,100411.83
2018-12-21T20:37:28.949Z,100415.08
2018-12-21T20:39:58.028Z,100414.29
2018-12-21T20:42:27.172Z,100404.77
2018-12-21T20:44:56.239Z,100392.59
2018-12-21T20:47:44.323Z,100385.13
2018-12-21T20:50:13.385Z,100385.56
2018-12-21T20:52:42.466Z,100374.11
2018-12-21T20:55:11.548Z,100372.02
2018-12-21T20:57:40.627Z,100369.92
2018-12-21T21:00:10.657Z,100360.55
2018-12-21T21:02:39.785Z,100359.84
2018-12-21T21:05:08.859Z,100355.11
2018-12-21T21:07:37.927Z,100355.28
2018-12-21T21:10:07.951Z,100345.78
2018-12-21T21:12:37.022Z,100341.23
2018-12-21T21:15:07.016Z,100337.85
2018-12-21T21:17:36.110Z,100326.44
2018-12-21T21:20:06.119Z,100320.23
2018-12-21T21:22:35.184Z,100314.69
2018-12-21T21:25:04.336Z,100311.27
2018-12-21T21:27:33.402Z,100302.37
2018-12-21T21:30:02.483Z,100294.06
2018-12-21T21:32:31.569Z,100293.77
2018-12-21T21:35:00.634Z,100291.61
2018-12-21T21:37:29.709Z,100291.87
2018-12-21T21:39:59.021Z,100289.88
2018-12-21T21:42:28.089Z,100283.55
2018-12-21T21:44:57.148Z,100291.31
2018-12-21T21:47:26.250Z,100287.89
2018-12-21T21:49:55.320Z,100283.09
2018-12-21T21:52:24.403Z,100280.78
2018-12-21T21:54:53.590Z,100272.45
2018-12-21T21:57:22.656Z,100263.73
2018-12-21T21:59:51.719Z,100273.14
2018-12-21T22:02:20.819Z,100265.11
2018-12-21T22:04:49.885Z,100258.55
2018-12-21T22:07:19.056Z,100248.67
2018-12-21T22:09:48.580Z,100237.66
2018-12-21T22:12:17.654Z,100232.98
2018-12-21T22:14:46.722Z,100231.57
2018-12-21T22:17:15.819Z,100223.52
2018-12-21T22:19:44.887Z,100218.19
2018-12-21T22:22:13.959Z,100210.19
2018-12-21T22:24:43.140Z,100206.22
2018-12-21T22:27:12.207Z,100207.66
2018-12-21T22:29:41.284Z,100209.17
2018-12-21T22:32:10.476Z,100200.63
2018-12-21T22:34:39.543Z,100201.82
2018-12-21T22:37:10.574Z,100195.23
2018-12-21T22:39:39.673Z,100194.25
2018-12-21T22:42:08.733Z,100190.03
2018-12-21T22:44:37.805Z,100183.72
2018-12-21T22:47:06.901Z,100187.70
2018-12-21T22:49:35.966Z,100178.84
2018-12-21T22:52:05.036Z,100177.55
2018-12-21T22:54:34.137Z,100183.00
2018-12-21T22:57:03.201Z,100172.70
2018-12-21T22:59:32.264Z,100172.34
2018-12-21T23:02:01.358Z,100158.02
2018-12-21T23:04:30.419Z,100156.70
2018-12-21T23:06:59.493Z,100147.93
2018-12-21T23:09:28.599Z,100137.94
2018-12-21T23:11:57.675Z,100133.83
2018-12-21T23:14:26.747Z,100140.59
2018-12-21T23:16:59.552Z,100134.75
2018-12-21T23:19:28.619Z,100129.56
2018-12-21T23:21:57.681Z,100127.46
2018-12-21T23:24:26.774Z,100124.61
2018-12-21T23:26:55.844Z,100114.97
2018-12-21T23:29:24.908Z,100117.70
2018-12-21T23:31:54.004Z,100111.52
2018-12-21T23:34:23.074Z,100106.52
2018-12-21T23:36:52.142Z,100095.02
2018-12-21T23:39:21.258Z,100091.58
2018-12-21T23:41:50.456Z,100089.59
2018-12-21T23:44:19.518Z,100090.19
2018-12-21T23:46:48.644Z,100077.92
2018-12-21T23:49:17.705Z,100079.32
2018-12-21T23:51:46.780Z,100073.25
2018-12-21T23:54:15.918Z,100074.30
2018-12-21T23:56:44.951Z,100069.59
2018-12-21T23:59:14.021Z,100066.47
